Weather at Aviosuperficie Il Falco

Public forecast

Using degrees Celsius for public forecast. Weather courtesy of forecast.io.

Closest aviation weather report (METAR) to Aviosuperficie Il Falco

Closest report is Turin Airport, 13.3 nm (24.5 km) WSW. Retrieved 2021/05/14 23:20 UTC (29 minutes ago):

LIMF 142320Z 32002KT CAVOK 10/07 Q1010

Closest aviation forecast (TAF) to Aviosuperficie Il Falco

Closest forecast is Turin Airport, 13.3 nm (24.5 km) WSW. Retrieved 2021/05/14 18:22 UTC (5 hours ago):

TAF LIMF 141700Z 1418/1518 VRB05KT 9999 BKN080